createdAt,value
2018-08-25T00:02:47.214Z,16.80
2018-08-25T00:06:55.523Z,16.90
2018-08-25T00:11:03.842Z,16.90
2018-08-25T00:15:12.162Z,16.80
2018-08-25T00:19:20.476Z,17.00
2018-08-25T00:23:28.783Z,17.00
2018-08-25T00:27:37.103Z,16.80
2018-08-25T00:31:45.407Z,16.80
2018-08-25T00:35:53.771Z,16.80
2018-08-25T00:40:02.117Z,16.80
2018-08-25T00:44:10.450Z,16.80
2018-08-25T00:48:18.791Z,16.60
2018-08-25T00:52:27.138Z,16.60
2018-08-25T00:56:35.461Z,16.70
2018-08-25T01:00:43.805Z,16.70
2018-08-25T01:04:52.218Z,16.60
2018-08-25T01:09:00.717Z,16.60
2018-08-25T01:13:09.469Z,16.70
2018-08-25T01:17:17.759Z,16.60
2018-08-25T01:21:26.092Z,16.70
2018-08-25T01:25:34.391Z,16.60
2018-08-25T01:29:42.662Z,16.60
2018-08-25T01:33:50.958Z,16.60
2018-08-25T01:37:59.291Z,16.60
2018-08-25T01:42:07.560Z,16.60
2018-08-25T01:46:15.883Z,16.70
2018-08-25T01:50:24.243Z,16.60
2018-08-25T01:54:32.628Z,16.60
2018-08-25T01:58:40.922Z,16.50
2018-08-25T02:02:49.423Z,16.60
2018-08-25T02:11:05.848Z,16.10
2018-08-25T02:15:14.209Z,15.80
2018-08-25T02:19:22.533Z,15.60
2018-08-25T02:23:30.857Z,15.30
2018-08-25T02:27:39.168Z,15.00
2018-08-25T02:31:47.754Z,14.80
2018-08-25T02:35:56.115Z,14.80
2018-08-25T02:40:04.418Z,14.80
2018-08-25T02:44:12.785Z,14.80
2018-08-25T02:48:21.127Z,14.50
2018-08-25T02:52:29.480Z,14.50
2018-08-25T02:56:37.833Z,14.70
2018-08-25T03:00:46.199Z,14.70
2018-08-25T03:04:54.519Z,14.80
2018-08-25T03:09:02.901Z,14.80
2018-08-25T03:13:11.255Z,14.90
2018-08-25T03:17:19.617Z,15.00
2018-08-25T03:21:27.907Z,15.10
2018-08-25T03:25:36.248Z,15.00
2018-08-25T03:29:44.588Z,15.10
2018-08-25T03:33:52.919Z,14.90
2018-08-25T03:38:01.258Z,14.90
2018-08-25T03:42:09.591Z,14.90
2018-08-25T03:46:17.926Z,14.90
2018-08-25T03:54:34.352Z,15.00
2018-08-25T03:58:42.669Z,14.90
2018-08-25T04:02:50.990Z,14.80
2018-08-25T04:06:59.313Z,14.60
2018-08-25T04:11:07.630Z,14.60
2018-08-25T04:15:16.014Z,14.50
2018-08-25T04:19:24.441Z,14.40
2018-08-25T04:23:32.721Z,14.40
2018-08-25T04:27:41.104Z,14.40
2018-08-25T04:31:49.436Z,14.20
2018-08-25T04:35:57.752Z,14.20
2018-08-25T04:40:06.413Z,14.20
2018-08-25T04:44:14.778Z,14.20
2018-08-25T04:48:23.114Z,14.20
2018-08-25T04:52:31.527Z,14.20
2018-08-25T04:56:39.856Z,14.20
2018-08-25T05:00:48.682Z,14.30
2018-08-25T05:04:57.028Z,14.20
2018-08-25T05:09:07.815Z,14.10
2018-08-25T05:13:16.104Z,13.90
2018-08-25T05:17:24.469Z,13.90
2018-08-25T05:21:32.809Z,13.90
2018-08-25T05:25:41.146Z,13.90
2018-08-25T05:29:49.425Z,13.90
2018-08-25T05:33:57.750Z,13.90
2018-08-25T05:38:06.090Z,13.80
2018-08-25T05:42:14.393Z,13.90
2018-08-25T05:46:22.720Z,13.90
2018-08-25T05:50:31.001Z,14.00
2018-08-25T05:54:39.496Z,14.10
2018-08-25T05:58:47.915Z,14.20
2018-08-25T06:02:56.327Z,14.00
2018-08-25T06:07:04.655Z,14.00
2018-08-25T06:11:12.982Z,14.10
2018-08-25T06:15:21.313Z,14.10
2018-08-25T06:19:29.658Z,14.10
2018-08-25T06:23:38.034Z,14.10
2018-08-25T06:27:46.336Z,14.00
2018-08-25T06:31:54.690Z,14.00
2018-08-25T06:36:03.055Z,14.00
2018-08-25T06:40:11.331Z,14.10
2018-08-25T06:44:19.645Z,14.10
2018-08-25T06:48:27.944Z,14.00
2018-08-25T06:52:36.292Z,14.00
2018-08-25T06:56:44.562Z,14.10
2018-08-25T07:00:53.274Z,14.00
2018-08-25T07:05:01.592Z,14.00
2018-08-25T07:09:11.486Z,14.10
2018-08-25T07:13:19.770Z,14.20
2018-08-25T07:17:28.122Z,14.20
2018-08-25T07:21:36.486Z,14.30
2018-08-25T07:25:44.886Z,14.30
2018-08-25T07:29:53.227Z,14.20
2018-08-25T07:34:01.547Z,14.30
2018-08-25T07:38:09.883Z,14.30
2018-08-25T07:42:18.281Z,14.40
2018-08-25T07:46:26.633Z,14.60
2018-08-25T07:50:34.984Z,14.50
2018-08-25T07:54:43.325Z,14.60
2018-08-25T07:58:51.640Z,14.60
2018-08-25T08:02:59.959Z,14.90
2018-08-25T08:07:08.283Z,14.70
2018-08-25T08:11:16.627Z,14.50
2018-08-25T08:15:24.978Z,14.60
2018-08-25T08:19:33.281Z,14.80
2018-08-25T08:23:41.593Z,14.80
2018-08-25T08:27:49.888Z,14.60
2018-08-25T08:31:58.242Z,14.80
2018-08-25T08:36:06.610Z,14.80
2018-08-25T08:40:14.987Z,14.70
2018-08-25T08:44:23.297Z,15.00
2018-08-25T08:48:31.579Z,15.20
2018-08-25T08:52:40.295Z,15.40
2018-08-25T08:56:48.657Z,15.80
2018-08-25T09:00:56.966Z,16.00
2018-08-25T09:05:05.589Z,16.20
2018-08-25T09:09:13.940Z,16.20
2018-08-25T09:13:22.255Z,15.80
2018-08-25T09:17:30.711Z,15.80
2018-08-25T09:21:39.051Z,16.00
2018-08-25T09:25:47.391Z,16.00
2018-08-25T09:29:55.744Z,16.20
2018-08-25T09:34:04.065Z,16.40
2018-08-25T09:38:12.433Z,16.40
2018-08-25T09:42:21.646Z,16.40
2018-08-25T09:46:29.988Z,16.30
2018-08-25T09:50:38.356Z,16.40
2018-08-25T09:54:46.633Z,16.80
2018-08-25T09:58:55.118Z,16.60
2018-08-25T10:03:03.402Z,16.70
2018-08-25T10:07:11.745Z,17.30
2018-08-25T10:11:20.217Z,17.50
2018-08-25T10:15:29.343Z,17.40
2018-08-25T10:19:37.666Z,17.30
2018-08-25T10:23:46.037Z,17.70
2018-08-25T10:27:54.381Z,17.60
2018-08-25T10:32:02.824Z,17.50
2018-08-25T10:36:11.141Z,17.10
2018-08-25T10:40:19.474Z,16.80
2018-08-25T10:44:27.784Z,16.70
2018-08-25T10:48:36.110Z,16.10
2018-08-25T10:52:45.846Z,15.90
2018-08-25T10:56:54.237Z,16.10
2018-08-25T11:01:02.779Z,16.50
2018-08-25T11:05:10.902Z,16.90
2018-08-25T11:09:19.185Z,17.10
2018-08-25T11:13:27.535Z,17.20
2018-08-25T11:17:35.905Z,17.00
2018-08-25T11:21:44.263Z,16.90
2018-08-25T11:25:52.576Z,16.60
2018-08-25T11:30:00.864Z,16.30
2018-08-25T11:34:09.285Z,16.60
2018-08-25T11:38:17.637Z,17.20
2018-08-25T11:42:26.054Z,17.20
2018-08-25T11:46:34.490Z,17.50
2018-08-25T11:50:42.800Z,17.90
2018-08-25T11:54:51.173Z,18.10
2018-08-25T11:58:59.511Z,18.30
2018-08-25T12:03:07.907Z,18.30
2018-08-25T12:07:16.248Z,18.30
2018-08-25T12:11:24.718Z,18.20
2018-08-25T12:15:33.117Z,18.30
2018-08-25T12:19:41.458Z,18.10
2018-08-25T12:23:49.825Z,17.80
2018-08-25T12:27:58.202Z,18.30
2018-08-25T12:32:06.547Z,18.40
2018-08-25T12:36:14.841Z,18.50
2018-08-25T12:40:23.179Z,18.80
2018-08-25T12:44:31.538Z,18.90
2018-08-25T12:48:39.904Z,18.70
2018-08-25T12:52:48.258Z,18.70
2018-08-25T12:56:56.577Z,18.70
2018-08-25T13:01:05.057Z,18.70
2018-08-25T13:05:13.413Z,18.60
2018-08-25T13:09:21.717Z,18.30
2018-08-25T13:13:30.031Z,18.10
2018-08-25T13:17:38.401Z,18.10
2018-08-25T13:21:46.765Z,18.10
2018-08-25T13:30:03.147Z,18.50
2018-08-25T13:34:11.473Z,18.60
2018-08-25T13:38:19.817Z,17.80
2018-08-25T13:42:28.098Z,16.70
2018-08-25T13:46:36.364Z,16.40
2018-08-25T13:50:44.677Z,16.00
2018-08-25T13:54:53.041Z,15.80
2018-08-25T13:59:01.301Z,16.10
2018-08-25T14:03:09.623Z,16.60
2018-08-25T14:07:17.935Z,17.40
2018-08-25T14:11:26.518Z,17.90
2018-08-25T14:15:34.895Z,18.20
2018-08-25T14:19:43.235Z,18.10
2018-08-25T14:23:51.559Z,18.40
2018-08-25T14:27:59.869Z,18.00
2018-08-25T14:32:08.238Z,17.80
2018-08-25T14:36:16.634Z,17.80
2018-08-25T14:40:24.895Z,18.20
2018-08-25T14:44:33.224Z,18.20
2018-08-25T14:48:41.566Z,17.90
2018-08-25T14:52:49.907Z,17.90
2018-08-25T14:56:58.272Z,17.70
2018-08-25T15:01:06.547Z,17.60
2018-08-25T15:05:14.853Z,17.80
2018-08-25T15:09:23.208Z,17.80
2018-08-25T15:13:31.646Z,18.00
2018-08-25T15:17:39.963Z,18.00
2018-08-25T15:21:48.325Z,17.60
2018-08-25T15:25:56.612Z,17.10
2018-08-25T15:30:05.400Z,17.10
2018-08-25T15:34:13.717Z,17.00
2018-08-25T15:38:22.031Z,17.00
2018-08-25T15:42:30.408Z,17.50
2018-08-25T15:46:38.746Z,17.50
2018-08-25T15:50:47.083Z,17.30
2018-08-25T15:54:55.432Z,17.30
2018-08-25T15:59:03.776Z,17.40
2018-08-25T16:03:12.066Z,17.00
2018-08-25T16:07:20.371Z,16.90
2018-08-25T16:11:28.765Z,16.90
2018-08-25T16:15:37.033Z,17.20
2018-08-25T16:19:45.471Z,17.50
2018-08-25T16:23:54.209Z,17.30
2018-08-25T16:28:02.515Z,17.40
2018-08-25T16:32:11.031Z,17.30
2018-08-25T16:36:19.380Z,17.50
2018-08-25T16:40:27.703Z,17.40
2018-08-25T16:44:36.019Z,17.10
2018-08-25T16:48:44.385Z,16.90
2018-08-25T16:52:52.733Z,16.70
2018-08-25T16:57:01.036Z,16.60
2018-08-25T17:01:09.381Z,16.40
2018-08-25T17:05:17.710Z,16.40
2018-08-25T17:09:26.002Z,16.10
2018-08-25T17:13:34.385Z,16.00
2018-08-25T17:17:42.687Z,16.30
2018-08-25T17:21:51.020Z,16.30
2018-08-25T17:25:59.355Z,16.10
2018-08-25T17:30:07.650Z,16.10
2018-08-25T17:34:15.939Z,16.00
2018-08-25T17:38:24.202Z,16.00
2018-08-25T17:42:32.530Z,15.90
2018-08-25T17:46:40.828Z,16.00
2018-08-25T17:50:49.161Z,16.10
2018-08-25T17:54:57.441Z,16.00
2018-08-25T17:59:05.733Z,16.10
2018-08-25T18:03:14.344Z,16.10
2018-08-25T18:07:22.674Z,16.10
2018-08-25T18:11:30.990Z,16.20
2018-08-25T18:15:39.263Z,16.00
2018-08-25T18:19:47.565Z,15.90
2018-08-25T18:23:55.874Z,15.80
2018-08-25T18:28:04.385Z,15.60
2018-08-25T18:32:13.243Z,15.40
2018-08-25T18:36:21.618Z,15.20
2018-08-25T18:40:29.939Z,15.30
2018-08-25T18:44:38.347Z,15.50
2018-08-25T18:48:46.653Z,15.40
2018-08-25T18:52:54.978Z,15.40
2018-08-25T18:57:03.302Z,15.10
2018-08-25T19:01:11.646Z,15.10
2018-08-25T19:09:28.210Z,15.10
2018-08-25T19:13:36.550Z,15.10
2018-08-25T19:17:44.974Z,15.20
2018-08-25T19:21:53.280Z,15.00
2018-08-25T19:26:01.614Z,14.90
2018-08-25T19:34:18.083Z,15.00
2018-08-25T19:38:26.354Z,14.90
2018-08-25T19:42:34.704Z,15.00
2018-08-25T19:46:42.989Z,15.00
2018-08-25T19:50:51.277Z,14.90
2018-08-25T19:54:59.585Z,15.00
2018-08-25T19:59:07.883Z,14.90
2018-08-25T20:03:16.247Z,15.00
2018-08-25T20:07:24.543Z,14.90
2018-08-25T20:11:35.053Z,15.10
2018-08-25T20:15:43.469Z,14.80
2018-08-25T20:19:51.727Z,14.60
2018-08-25T20:24:00.033Z,14.30
2018-08-25T20:28:08.355Z,14.30
2018-08-25T20:32:16.667Z,14.20
2018-08-25T20:36:24.968Z,14.20
2018-08-25T20:40:33.277Z,13.90
2018-08-25T20:44:42.791Z,14.10
2018-08-25T20:48:51.112Z,14.20
2018-08-25T20:52:59.410Z,14.10
2018-08-25T20:57:07.862Z,14.10
2018-08-25T21:01:16.127Z,14.20
2018-08-25T21:05:24.462Z,14.30
2018-08-25T21:09:32.776Z,14.40
2018-08-25T21:13:41.042Z,14.40
2018-08-25T21:17:49.365Z,14.40
2018-08-25T21:21:57.698Z,14.30
2018-08-25T21:26:06.348Z,14.40
2018-08-25T21:30:14.654Z,14.30
2018-08-25T21:34:22.922Z,14.20
2018-08-25T21:42:39.226Z,14.30
2018-08-25T21:46:47.553Z,14.40
2018-08-25T21:50:55.891Z,14.30
2018-08-25T21:55:04.162Z,14.10
2018-08-25T21:59:12.533Z,14.20
2018-08-25T22:03:20.849Z,14.20
2018-08-25T22:07:29.198Z,14.20
2018-08-25T22:11:37.546Z,14.10
2018-08-25T22:15:45.847Z,14.00
2018-08-25T22:19:54.174Z,14.00
2018-08-25T22:24:02.562Z,14.00
2018-08-25T22:28:10.882Z,14.00
2018-08-25T22:32:19.213Z,14.00
2018-08-25T22:36:27.528Z,13.90
2018-08-25T22:40:35.848Z,13.90
2018-08-25T22:44:44.163Z,13.80
2018-08-25T22:48:53.489Z,13.70
2018-08-25T22:53:01.806Z,13.70
2018-08-25T22:57:10.159Z,13.70
2018-08-25T23:01:18.535Z,13.70
2018-08-25T23:05:27.047Z,13.60
2018-08-25T23:09:35.443Z,13.60
2018-08-25T23:13:43.781Z,13.50
2018-08-25T23:17:52.112Z,13.50
2018-08-25T23:22:00.500Z,13.40
2018-08-25T23:26:08.797Z,13.40
2018-08-25T23:30:17.187Z,13.40
2018-08-25T23:34:25.454Z,13.40
2018-08-25T23:38:33.738Z,13.30
2018-08-25T23:42:42.058Z,13.20
2018-08-25T23:46:50.377Z,13.20
2018-08-25T23:50:58.712Z,13.10
2018-08-25T23:55:08.232Z,13.10
2018-08-25T23:59:16.544Z,13.10
